Hovedside
METAR-TAF:

METAR-TAF

Lufthavner :

Sogndal, Norge

Sogndal lufthamn

breddegrad: 61-09N, lengdegrad: 007-08E, høyde over havet: 49 m

Gjeldene værobservasjon

Denne rapporten ble laget for 54 minutter siden, klokken 19:50 UTC
Vind 2 kt fra skiftende retning
Temperatur 3°C
Luftfuktighet 100%
Trykk 1025 hPa
Sikt 10 km eller mer
Spredte skyer i en høyde av 1700 ft
Brutte skyer i en høyde av 2400 ft

METAR: ENSG 261950Z VRB02KT 9999 SCT017 BKN024 03/03 Q1025 RMK WIND 3806FT 27018KT

Tid: 22:44 (20:44 UTC)


TAF: fraværende

Værobservasjoner og værvarsel for over 4000 flyplasser (METAR- og TAF-rapporter).

Tilgjengelige stasjoner er representert av de røde og gule prikkene på kartet.

Hold musepekeren over prikken for å se navnet på stasjonen.

Klikk så for å se værobservasjoner og -varsler.

For å forandre kartet kan du klikke på den grønne knappen med svart kryss for å zoome inn, på den grønne knappen med strek for å zoome ut, eller på de grønne pilene for å se tilstøtende kart.


METAR-TAF: